Bookmark and Share
Track history (hours):
 

Arklow Rock

Last reported at 2014-Apr-17 10:22 UTC. Time now 2014-Apr-20 18:57 UTC.
Position N 46°60' W 002°39'.

Length 90 m; draft 3.7 m.

Type: Cargo ship. MMSI: 246002000.

NotesDate/timePositionNaut miles runAvg speedWind from/ knotsBaromVisibWave heightAir tempDewpointWater temp
2014-Apr-17 10:22N 46°60' W 002°39'911.3
2014-Apr-17 09:33N 47°04' W 002°51'1211.6
2014-Apr-17 08:34N 47°09' W 003°06'1211.8
2014-Apr-17 07:33N 47°16' W 003°21'1212.5
2014-Apr-17 06:33N 47°21' W 003°37'1212.4
2014-Apr-17 05:33N 47°29' W 003°52'5012.1
2014-Apr-17 01:25N 47°55' W 004°55'37911.4
2014-Apr-15 16:18N 54°13' W 005°23'911.4
2014-Apr-15 15:31N 54°22' W 005°20'1010.5
2014-Apr-15 14:33N 54°32' W 005°24'10 4.9
2014-Apr-15 12:34N 54°41' W 005°29'10 9.6
2014-Apr-15 11:34N 54°41' W 005°46'7 2.3
2014-Apr-15 08:31N 54°37' W 005°55'0 0.0
2014-Apr-14 11:33N 54°37' W 005°55'7 6.8
2014-Apr-14 10:34N 54°42' W 005°46'1010.2
2014-Apr-14 09:34N 54°41' W 005°29'1211.5
2014-Apr-14 08:34N 54°30' W 005°23'1110.6
2014-Apr-14 07:34N 54°19' W 005°21'267 7.8
2014-Apr-12 21:18N 50°17' W 002°17'20 9.6
2014-Apr-12 19:10N 50°20' W 001°46'22 8.4
2014-Apr-12 16:33N 50°24' W 001°12'10 9.9
2014-Apr-12 15:33N 50°26' W 000°57'3712.4
2014-Apr-12 12:33N 50°33' E 000°01'1212.0
2014-Apr-12 11:33N 50°36' E 000°19'1111.4
2014-Apr-12 10:33N 50°39' E 000°36'1110.7
2014-Apr-12 09:33N 50°46' E 000°50'1010.2
2014-Apr-12 08:33N 50°51' E 001°03'2911.8
2014-Apr-12 06:07N 51°10' E 001°38'813.5
2014-Apr-12 05:32N 51°15' E 001°47'1212.7
2014-Apr-12 04:33N 51°25' E 001°59'1311.5
2014-Apr-12 03:26N 51°21' E 002°19'1011.5
2014-Apr-12 02:33N 51°23' E 002°35'1110.8
2014-Apr-12 01:34N 51°22' E 002°52'1111.2
2014-Apr-12 00:33N 51°23' E 003°10'1111.0
2014-Apr-11 23:33N 51°25' E 003°28'9 8.9
2014-Apr-11 22:33N 51°26' E 003°42'8 7.8
2014-Apr-11 21:33N 51°20' E 003°49'2 1.9
2014-Apr-11 20:33N 51°18' E 003°50'7 6.5
2014-Apr-11 19:33N 51°12' E 003°48'6 5.8
2014-Apr-11 18:34N 51°06' E 003°45'0 0.1
2014-Apr-11 17:33N 51°06' E 003°44'0 0.0
2014-Apr-11 16:30N 51°06' E 003°44'0 0.0
2014-Apr-11 15:33N 51°06' E 003°44'0 0.0
2014-Apr-11 14:33N 51°06' E 003°44'0 0.0
2014-Apr-11 13:33N 51°06' E 003°44'0 0.0
2014-Apr-11 12:33N 51°06' E 003°44'0 0.0
2014-Apr-11 11:30N 51°06' E 003°44'0 0.0
2014-Apr-11 10:33N 51°06' E 003°44'0 0.0
2014-Apr-11 09:29N 51°06' E 003°44'0 0.0
2014-Apr-11 08:29N 51°06' E 003°44'0 0.0
2014-Apr-11 07:29N 51°06' E 003°44'0 0.0
2014-Apr-11 06:32N 51°06' E 003°44'0 0.0
2014-Apr-11 05:29N 51°06' E 003°44'0 0.0
2014-Apr-11 04:29N 51°06' E 003°44'0 0.0
2014-Apr-11 03:32N 51°06' E 003°44'0 0.0
2014-Apr-11 02:32N 51°06' E 003°44'0 0.0
2014-Apr-11 01:32N 51°06' E 003°44'0 0.0
2014-Apr-11 00:32N 51°06' E 003°44'0 0.0
2014-Apr-10 23:32N 51°06' E 003°44'0 0.0
2014-Apr-10 22:32N 51°06' E 003°44'0 0.0
2014-Apr-10 21:32N 51°06' E 003°44'0 0.0
2014-Apr-10 20:32N 51°06' E 003°44'0 0.0
2014-Apr-10 19:32N 51°06' E 003°44'0 0.0
2014-Apr-10 18:32N 51°06' E 003°44'0 0.0
2014-Apr-10 17:32N 51°06' E 003°44'0 0.0
2014-Apr-10 16:26N 51°06' E 003°44'0 0.0
2014-Apr-10 15:29N 51°06' E 003°44'0 0.0
2014-Apr-10 14:29N 51°06' E 003°44'0 0.0
2014-Apr-10 13:29N 51°06' E 003°44'0 0.0
2014-Apr-10 12:29N 51°06' E 003°44'0 0.0
2014-Apr-10 11:29N 51°06' E 003°44'0 0.0
2014-Apr-10 10:29N 51°06' E 003°44'0 0.5
2014-Apr-10 09:33N 51°07' E 003°45'8 7.7
2014-Apr-10 08:33N 51°14' E 003°48'6 5.9
2014-Apr-10 07:34N 51°20' E 003°49'1 0.7
2014-Apr-10 06:34N 51°20' E 003°49'7 7.4
2014-Apr-10 05:33N 51°25' E 003°39'1211.5
2014-Apr-10 04:33N 51°32' E 003°25'1612.0
2014-Apr-10 03:16N 51°45' E 003°10'3512.4
2014-Apr-10 00:27N 51°53' E 002°15'1213.0
2014-Apr-09 23:33N 51°50' E 001°57'1212.1
2014-Apr-09 22:33N 51°52' E 001°38'1111.4
2014-Apr-09 21:34N 51°55' E 001°20'10 9.7
2014-Apr-09 20:34N 52°02' E 001°09'0 0.3
2014-Apr-09 19:28N 52°02' E 001°09'0 0.0
2014-Apr-09 18:31N 52°02' E 001°09'0 0.0
2014-Apr-09 17:31N 52°02' E 001°09'0 0.0
2014-Apr-09 16:28N 52°02' E 001°09'0 0.0
2014-Apr-09 15:31N 52°02' E 001°09'0 0.0
2014-Apr-09 14:31N 52°02' E 001°09'0 0.0
2014-Apr-09 13:31N 52°02' E 001°09'0 0.0
2014-Apr-09 12:28N 52°02' E 001°09'0 0.0
2014-Apr-09 08:16N 52°02' E 001°09'0 0.0
2014-Apr-09 06:22N 52°02' E 001°09'0 0.0
2014-Apr-09 05:28N 52°02' E 001°09'0 0.0
2014-Apr-09 04:31N 52°02' E 001°09'0 0.0
2014-Apr-09 03:31N 52°02' E 001°09'0 0.0
2014-Apr-09 02:31N 52°02' E 001°09'0 0.0
2014-Apr-09 01:31N 52°02' E 001°09'0 0.0
2014-Apr-09 00:28N 52°02' E 001°09'0 0.0
2014-Apr-08 23:31N 52°02' E 001°09'0 0.0
2014-Apr-08 22:31N 52°02' E 001°09'0 0.0
2014-Apr-08 21:34N 52°02' E 001°09'0 0.0
2014-Apr-08 20:34N 52°02' E 001°09'0 0.0
2014-Apr-08 19:21N 52°02' E 001°09'0 0.0
2014-Apr-08 18:33N 52°02' E 001°09'0 0.0
2014-Apr-08 17:33N 52°02' E 001°09'0 0.0
2014-Apr-08 16:33N 52°02' E 001°09'0 0.0
2014-Apr-08 15:33N 52°02' E 001°09'0 0.0
2014-Apr-08 14:33N 52°02' E 001°09'0 0.0
2014-Apr-08 13:30N 52°02' E 001°09'0 0.0
2014-Apr-08 12:33N 52°02' E 001°09'0 0.0
2014-Apr-08 11:33N 52°02' E 001°09'0 0.0
2014-Apr-08 10:21N 52°02' E 001°09'0 0.0
2014-Apr-08 09:30N 52°02' E 001°09'0 0.0
2014-Apr-08 08:33N 52°02' E 001°09'0 0.0
2014-Apr-08 07:33N 52°02' E 001°09'0 0.0
2014-Apr-08 06:27N 52°02' E 001°09'0 0.0
2014-Apr-08 05:33N 52°02' E 001°09'0 0.0
2014-Apr-08 04:33N 52°02' E 001°09'0 0.0
2014-Apr-08 03:33N 52°02' E 001°09'0 0.0
2014-Apr-08 02:33N 52°02' E 001°09'0 0.0
2014-Apr-08 01:27N 52°02' E 001°09'0 0.0
2014-Apr-08 00:33N 52°02' E 001°09'0 0.0
2014-Apr-07 23:33N 52°02' E 001°09'0 0.0
2014-Apr-07 22:30N 52°02' E 001°09'0 0.0
2014-Apr-07 21:30N 52°02' E 001°09'0 0.0
2014-Apr-07 20:27N 52°02' E 001°09'0 0.0
2014-Apr-07 19:33N 52°02' E 001°09'0 0.0
2014-Apr-07 17:33N 52°02' E 001°09'0 0.0
2014-Apr-07 13:19N 52°02' E 001°09'3 3.7
2014-Apr-07 12:34N 52°00' E 001°13'9 8.3
2014-Apr-07 11:32N 51°56' E 001°25'6 6.0
2014-Apr-07 10:33N 51°54' E 001°34'  

Dump ship's entire track history

sailing weather and tide predictions

Arklow Rock — PBZM — position and weather